Adagio — WDF9618 — position and weather

sailwx.info

Track history (hours):
 
Tides and Currents Weather Stations Pressure Air Temp Water Temp Dewpoint Dewpoint Depression Visibility Wind Speed Wind Dir Waves Ship Positions

Adagio

Owner: Whalen, Raymond J, Rockville, MD. More information available from US FCC via Universal Licensing System and Coast Guard Vessel Documentation Center.

Last reported at 2018-Feb-18 16:31 UTC. Time now 2018-Feb-22 13:06 UTC.
Position N 23°35' W 075°49'.

Length 14 m.

Type: Sailing vessel. MMSI: 366777490.

Date/timePositionNaut miles runAvg speedWind from/ knotsBaromVisibWave heightAir tempDewpointWater temp
2018-Feb-18 16:31N 23°35' W 075°49'0 6.2
2018-Feb-18 16:28N 23°35' W 075°49'3 5.9
2018-Feb-18 16:00N 23°37' W 075°52'3 5.9
2018-Feb-18 15:30N 23°38' W 075°54'1 1.4
2018-Feb-18 14:59N 23°38' W 075°55'0 0.0
2018-Feb-18 14:29N 23°38' W 075°55'0 0.0
2018-Feb-16 20:03N 23°38' W 075°55'0 0.0
2018-Feb-16 19:57N 23°38' W 075°55'0 0.2
2018-Feb-16 19:28N 23°38' W 075°55'0 0.0
2018-Feb-16 18:55N 23°38' W 075°55'0 0.0
2018-Feb-16 18:28N 23°38' W 075°55'0 0.1
2018-Feb-16 17:39N 23°38' W 075°55'1 3.8
2018-Feb-16 17:29N 23°38' W 075°54'2 3.2
2018-Feb-16 17:00N 23°39' W 075°55'  
2018-Feb-13 15:19N 24°07' W 076°27'2 7.7
2018-Feb-13 15:01N 24°05' W 076°25'1 0.0
2018-Feb-11 19:03N 24°06' W 076°24'0 0.0
2018-Feb-11 18:48N 24°06' W 076°24'1 1.6
2018-Feb-11 18:26N 24°06' W 076°25'2 4.6
2018-Feb-11 18:00N 24°06' W 076°27'4 8.2
2018-Feb-11 17:29N 24°03' W 076°30'2 4.3
2018-Feb-11 16:59N 24°01' W 076°31'3 6.3
2018-Feb-11 16:30N 24°04' W 076°30'3 6.3
2018-Feb-11 16:00N 24°07' W 076°30'3 6.3
2018-Feb-11 15:30N 24°10' W 076°29'1 0.0
2018-Feb-10 10:40N 24°11' W 076°28'0 0.0
2018-Feb-10 10:25N 24°11' W 076°28'0 0.0
2018-Feb-10 09:58N 24°11' W 076°28'0 0.0
2018-Feb-10 09:25N 24°11' W 076°28'0 0.0
2018-Feb-10 08:58N 24°11' W 076°28'0 0.0
2018-Feb-10 08:28N 24°11' W 076°28'0 0.0
2018-Feb-10 07:58N 24°11' W 076°28'0 0.0
2018-Feb-10 07:25N 24°11' W 076°28'0 0.0
2018-Feb-10 06:58N 24°11' W 076°28'0 0.0
2018-Feb-10 06:28N 24°11' W 076°28'0 0.0
2018-Feb-10 05:58N 24°11' W 076°28'0 0.0
2018-Feb-10 05:22N 24°11' W 076°28'0 0.0
2018-Feb-10 04:58N 24°11' W 076°28'0 0.0
2018-Feb-10 02:34N 24°11' W 076°28'0 0.0
2018-Feb-10 02:30N 24°11' W 076°28'0 0.0
2018-Feb-10 01:52N 24°11' W 076°28'0 0.0
2018-Feb-10 01:04N 24°11' W 076°28'0 0.0
2018-Feb-10 00:55N 24°11' W 076°28'0 0.0
2018-Feb-10 00:28N 24°11' W 076°28'0 0.0
2018-Feb-09 23:58N 24°11' W 076°28'0 0.0
2018-Feb-09 23:22N 24°11' W 076°28'  
Track history (hours):
 
Tides and Currents Weather Stations Pressure Air Temp Water Temp Dewpoint Dewpoint Depression Visibility Wind Speed Wind Dir Waves Ship Positions

Adagio

Owner: Whalen, Raymond J, Rockville, MD. More information available from US FCC via Universal Licensing System and Coast Guard Vessel Documentation Center.

Last reported at 2018-Feb-18 16:31 UTC. Time now 2018-Feb-22 13:06 UTC.
Position N 23°35' W 075°49'.

Length 14 m.

Type: Sailing vessel. MMSI: 366777490.

Date/timePositionNaut miles runAvg speedWind from/ knotsBaromVisibWave heightAir tempDewpointWater temp
2018-Feb-18 16:31N 23°35' W 075°49'0 6.2
2018-Feb-18 16:28N 23°35' W 075°49'3 5.9
2018-Feb-18 16:00N 23°37' W 075°52'3 5.9
2018-Feb-18 15:30N 23°38' W 075°54'1 1.4
2018-Feb-18 14:59N 23°38' W 075°55'0 0.0
2018-Feb-18 14:29N 23°38' W 075°55'0 0.0
2018-Feb-16 20:03N 23°38' W 075°55'0 0.0
2018-Feb-16 19:57N 23°38' W 075°55'0 0.2
2018-Feb-16 19:28N 23°38' W 075°55'0 0.0
2018-Feb-16 18:55N 23°38' W 075°55'0 0.0
2018-Feb-16 18:28N 23°38' W 075°55'0 0.1
2018-Feb-16 17:39N 23°38' W 075°55'1 3.8
2018-Feb-16 17:29N 23°38' W 075°54'2 3.2
2018-Feb-16 17:00N 23°39' W 075°55'  
2018-Feb-13 15:19N 24°07' W 076°27'2 7.7
2018-Feb-13 15:01N 24°05' W 076°25'1 0.0
2018-Feb-11 19:03N 24°06' W 076°24'0 0.0
2018-Feb-11 18:48N 24°06' W 076°24'1 1.6
2018-Feb-11 18:26N 24°06' W 076°25'2 4.6
2018-Feb-11 18:00N 24°06' W 076°27'4 8.2
2018-Feb-11 17:29N 24°03' W 076°30'2 4.3
2018-Feb-11 16:59N 24°01' W 076°31'3 6.3
2018-Feb-11 16:30N 24°04' W 076°30'3 6.3
2018-Feb-11 16:00N 24°07' W 076°30'3 6.3
2018-Feb-11 15:30N 24°10' W 076°29'1 0.0
2018-Feb-10 10:40N 24°11' W 076°28'0 0.0
2018-Feb-10 10:25N 24°11' W 076°28'0 0.0
2018-Feb-10 09:58N 24°11' W 076°28'0 0.0
2018-Feb-10 09:25N 24°11' W 076°28'0 0.0
2018-Feb-10 08:58N 24°11' W 076°28'0 0.0
2018-Feb-10 08:28N 24°11' W 076°28'0 0.0
2018-Feb-10 07:58N 24°11' W 076°28'0 0.0
2018-Feb-10 07:25N 24°11' W 076°28'0 0.0
2018-Feb-10 06:58N 24°11' W 076°28'0 0.0
2018-Feb-10 06:28N 24°11' W 076°28'0 0.0
2018-Feb-10 05:58N 24°11' W 076°28'0 0.0
2018-Feb-10 05:22N 24°11' W 076°28'0 0.0
2018-Feb-10 04:58N 24°11' W 076°28'0 0.0
2018-Feb-10 02:34N 24°11' W 076°28'0 0.0
2018-Feb-10 02:30N 24°11' W 076°28'0 0.0
2018-Feb-10 01:52N 24°11' W 076°28'0 0.0
2018-Feb-10 01:04N 24°11' W 076°28'0 0.0
2018-Feb-10 00:55N 24°11' W 076°28'0 0.0
2018-Feb-10 00:28N 24°11' W 076°28'0 0.0
2018-Feb-09 23:58N 24°11' W 076°28'0 0.0
2018-Feb-09 23:22N 24°11' W 076°28'  

Dump ship's entire track history